sensor_id;sensor_type;location;lat;lon;timestamp;pressure;altitude;pressure_sealevel;temperature;humidity
62725;BME280;49026;52.600;4.694;2022-07-21T00:00:10;101745.28;;;19.49;60.92
62725;BME280;49026;52.600;4.694;2022-07-21T00:02:35;101750.59;;;19.49;60.95
62725;BME280;49026;52.600;4.694;2022-07-21T00:05:01;101745.28;;;19.49;60.86
62725;BME280;49026;52.600;4.694;2022-07-21T00:07:26;101738.16;;;19.50;60.79
62725;BME280;49026;52.600;4.694;2022-07-21T00:09:51;101735.41;;;19.51;61.04
62725;BME280;49026;52.600;4.694;2022-07-21T00:12:19;101734.44;;;19.52;60.94
62725;BME280;49026;52.600;4.694;2022-07-21T00:14:44;101725.50;;;19.53;61.23
62725;BME280;49026;52.600;4.694;2022-07-21T00:17:09;101718.44;;;19.52;61.36
62725;BME280;49026;52.600;4.694;2022-07-21T00:19:34;101718.44;;;19.52;61.36
62725;BME280;49026;52.600;4.694;2022-07-21T00:22:02;101717.69;;;19.50;61.63
62725;BME280;49026;52.600;4.694;2022-07-21T00:24:27;101714.91;;;19.52;61.65
62725;BME280;49026;52.600;4.694;2022-07-21T00:26:53;101711.28;;;19.53;61.51
62725;BME280;49026;52.600;4.694;2022-07-21T00:29:18;101702.25;;;19.55;61.48
62725;BME280;49026;52.600;4.694;2022-07-21T00:31:43;101691.69;;;19.54;61.77
62725;BME280;49026;52.600;4.694;2022-07-21T00:34:09;101700.53;;;19.54;61.62
62725;BME280;49026;52.600;4.694;2022-07-21T00:36:34;101688.06;;;19.55;61.71
62725;BME280;49026;52.600;4.694;2022-07-21T00:38:59;101683.59;;;19.55;61.83
62725;BME280;49026;52.600;4.694;2022-07-21T00:41:27;101684.53;;;19.54;61.93
62725;BME280;49026;52.600;4.694;2022-07-21T00:43:52;101678.34;;;19.54;62.04
62725;BME280;49026;52.600;4.694;2022-07-21T00:46:20;101676.63;;;19.53;62.47
62725;BME280;49026;52.600;4.694;2022-07-21T00:48:45;101679.44;;;19.51;62.21
62725;BME280;49026;52.600;4.694;2022-07-21T00:51:11;101682.19;;;19.50;62.17
62725;BME280;49026;52.600;4.694;2022-07-21T00:53:36;101688.38;;;19.50;62.44
62725;BME280;49026;52.600;4.694;2022-07-21T00:56:04;101683.88;;;19.51;62.87
62725;BME280;49026;52.600;4.694;2022-07-21T00:58:30;101685.69;;;19.50;62.91
62725;BME280;49026;52.600;4.694;2022-07-21T01:00:57;101682.28;;;19.48;62.60
62725;BME280;49026;52.600;4.694;2022-07-21T01:03:23;101686.84;;;19.46;62.86
62725;BME280;49026;52.600;4.694;2022-07-21T01:05:48;101685.13;;;19.45;62.88
62725;BME280;49026;52.600;4.694;2022-07-21T01:08:16;101680.75;;;19.44;63.18
62725;BME280;49026;52.600;4.694;2022-07-21T01:10:44;101686.97;;;19.44;63.43
62725;BME280;49026;52.600;4.694;2022-07-21T01:13:09;101688.75;;;19.44;63.15
62725;BME280;49026;52.600;4.694;2022-07-21T01:15:35;101687.06;;;19.43;63.37
62725;BME280;49026;52.600;4.694;2022-07-21T01:18:01;101694.06;;;19.44;63.09
62725;BME280;49026;52.600;4.694;2022-07-21T01:20:32;101693.22;;;19.43;63.56
62725;BME280;49026;52.600;4.694;2022-07-21T01:22:58;101696.00;;;19.42;63.52
62725;BME280;49026;52.600;4.694;2022-07-21T01:25:23;101689.81;;;19.41;63.27
62725;BME280;49026;52.600;4.694;2022-07-21T01:27:48;101699.59;;;19.41;63.23
62725;BME280;49026;52.600;4.694;2022-07-21T01:30:16;101693.44;;;19.40;63.61
62725;BME280;49026;52.600;4.694;2022-07-21T01:32:42;101691.59;;;19.41;63.36
62725;BME280;49026;52.600;4.694;2022-07-21T01:35:11;101695.25;;;19.40;63.61
62725;BME280;49026;52.600;4.694;2022-07-21T01:37:41;101696.28;;;19.37;63.49
62725;BME280;49026;52.600;4.694;2022-07-21T01:40:07;101692.88;;;19.35;63.29
62725;BME280;49026;52.600;4.694;2022-07-21T01:42:52;101680.56;;;19.33;63.29
62725;BME280;49026;52.600;4.694;2022-07-21T01:45:18;101684.22;;;19.32;63.68
62725;BME280;49026;52.600;4.694;2022-07-21T01:47:43;101684.22;;;19.32;63.74
62725;BME280;49026;52.600;4.694;2022-07-21T01:50:10;101684.22;;;19.32;63.93
62725;BME280;49026;52.600;4.694;2022-07-21T01:52:35;101679.81;;;19.31;63.79
62725;BME280;49026;52.600;4.694;2022-07-21T01:55:03;101676.31;;;19.30;64.10
62725;BME280;49026;52.600;4.694;2022-07-21T01:57:28;101674.69;;;19.28;63.86
62725;BME280;49026;52.600;4.694;2022-07-21T01:59:54;101669.44;;;19.26;63.84
62725;BME280;49026;52.600;4.694;2022-07-21T02:02:19;101666.91;;;19.24;63.90
62725;BME280;49026;52.600;4.694;2022-07-21T02:04:47;101662.53;;;19.23;63.95
62725;BME280;49026;52.600;4.694;2022-07-21T02:07:13;101661.78;;;19.21;64.09
62725;BME280;49026;52.600;4.694;2022-07-21T02:09:38;101660.06;;;19.20;63.93
62725;BME280;49026;52.600;4.694;2022-07-21T02:12:04;101665.38;;;19.20;63.92
62725;BME280;49026;52.600;4.694;2022-07-21T02:14:32;101657.47;;;19.19;63.96
62725;BME280;49026;52.600;4.694;2022-07-21T02:16:57;101662.91;;;19.17;63.95
62725;BME280;49026;52.600;4.694;2022-07-21T02:19:22;101661.31;;;19.15;63.90
62725;BME280;49026;52.600;4.694;2022-07-21T02:21:47;101661.41;;;19.13;64.20
62725;BME280;49026;52.600;4.694;2022-07-21T02:24:15;101646.47;;;19.11;64.22
62725;BME280;49026;52.600;4.694;2022-07-21T02:26:40;101647.63;;;19.06;64.18
62725;BME280;49026;52.600;4.694;2022-07-21T02:29:06;101658.47;;;19.03;64.00
62725;BME280;49026;52.600;4.694;2022-07-21T02:31:31;101644.50;;;19.00;64.06
62725;BME280;49026;52.600;4.694;2022-07-21T02:33:56;101640.28;;;18.96;64.24
62725;BME280;49026;52.600;4.694;2022-07-21T02:36:21;101637.06;;;18.91;64.17
62725;BME280;49026;52.600;4.694;2022-07-21T02:38:47;101635.56;;;18.86;64.12
62725;BME280;49026;52.600;4.694;2022-07-21T02:41:12;101636.66;;;18.82;63.98
62725;BME280;49026;52.600;4.694;2022-07-21T02:43:37;101643.88;;;18.80;64.26
62725;BME280;49026;52.600;4.694;2022-07-21T02:46:08;101634.19;;;18.79;64.27
62725;BME280;49026;52.600;4.694;2022-07-21T02:48:33;101631.63;;;18.78;64.11
62725;BME280;49026;52.600;4.694;2022-07-21T02:50:59;101627.34;;;18.75;64.27
62725;BME280;49026;52.600;4.694;2022-07-21T02:53:24;101633.69;;;18.73;64.18
62725;BME280;49026;52.600;4.694;2022-07-21T02:55:52;101634.00;;;18.68;64.49
62725;BME280;49026;52.600;4.694;2022-07-21T02:58:24;101625.38;;;18.64;64.77
62725;BME280;49026;52.600;4.694;2022-07-21T03:03:21;101636.19;;;18.61;64.50
62725;BME280;49026;52.600;4.694;2022-07-21T03:05:49;101628.31;;;18.60;64.82
62725;BME280;49026;52.600;4.694;2022-07-21T03:08:19;101639.78;;;18.60;64.86
62725;BME280;49026;52.600;4.694;2022-07-21T03:10:48;101638.94;;;18.60;64.74
62725;BME280;49026;52.600;4.694;2022-07-21T03:13:13;101639.69;;;18.62;64.85
62725;BME280;49026;52.600;4.694;2022-07-21T03:15:40;101633.44;;;18.63;65.00
62725;BME280;49026;52.600;4.694;2022-07-21T03:18:05;101631.53;;;18.65;65.04
62725;BME280;49026;52.600;4.694;2022-07-21T03:20:35;101630.56;;;18.66;65.27
62725;BME280;49026;52.600;4.694;2022-07-21T03:23:01;101626.13;;;18.66;64.92
62725;BME280;49026;52.600;4.694;2022-07-21T03:25:26;101634.94;;;18.67;65.11
62725;BME280;49026;52.600;4.694;2022-07-21T03:27:52;101631.34;;;18.68;65.08
62725;BME280;49026;52.600;4.694;2022-07-21T03:30:21;101633.03;;;18.69;65.14
62725;BME280;49026;52.600;4.694;2022-07-21T03:32:47;101626.88;;;18.68;65.21
62725;BME280;49026;52.600;4.694;2022-07-21T03:35:14;101632.19;;;18.68;65.22
62725;BME280;49026;52.600;4.694;2022-07-21T03:37:44;101633.03;;;18.69;65.08
62725;BME280;49026;52.600;4.694;2022-07-21T03:40:11;101648.16;;;18.68;65.52
62725;BME280;49026;52.600;4.694;2022-07-21T03:42:36;101633.91;;;18.69;64.75
62725;BME280;49026;52.600;4.694;2022-07-21T03:45:05;101634.66;;;18.72;64.70
62725;BME280;49026;52.600;4.694;2022-07-21T03:47:31;101631.03;;;18.73;64.94
62725;BME280;49026;52.600;4.694;2022-07-21T03:49:56;101633.69;;;18.73;64.96
62725;BME280;49026;52.600;4.694;2022-07-21T03:52:24;101635.50;;;18.72;65.38
62725;BME280;49026;52.600;4.694;2022-07-21T03:54:49;101628.69;;;18.68;65.20
62725;BME280;49026;52.600;4.694;2022-07-21T03:57:16;101635.13;;;18.64;65.52
62725;BME280;49026;52.600;4.694;2022-07-21T03:59:42;101637.22;;;18.59;65.60
62725;BME280;49026;52.600;4.694;2022-07-21T04:02:07;101634.09;;;18.52;66.08
62725;BME280;49026;52.600;4.694;2022-07-21T04:04:32;101630.75;;;18.48;65.45
62725;BME280;49026;52.600;4.694;2022-07-21T04:07:00;101631.78;;;18.46;65.20
62725;BME280;49026;52.600;4.694;2022-07-21T04:09:25;101631.13;;;18.42;65.60
62725;BME280;49026;52.600;4.694;2022-07-21T04:11:50;101643.75;;;18.39;65.57
62725;BME280;49026;52.600;4.694;2022-07-21T04:14:15;101629.78;;;18.35;65.63
62725;BME280;49026;52.600;4.694;2022-07-21T04:16:41;101643.19;;;18.33;65.84
62725;BME280;49026;52.600;4.694;2022-07-21T04:19:09;101632.53;;;18.33;65.90
62725;BME280;49026;52.600;4.694;2022-07-21T04:21:36;101631.59;;;18.35;65.86
62725;BME280;49026;52.600;4.694;2022-07-21T04:24:02;101623.63;;;18.35;65.81
62725;BME280;49026;52.600;4.694;2022-07-21T04:26:27;101631.69;;;18.33;65.79
62725;BME280;49026;52.600;4.694;2022-07-21T04:28:54;101621.91;;;18.33;66.01
62725;BME280;49026;52.600;4.694;2022-07-21T04:31:19;101625.31;;;18.36;66.05
62725;BME280;49026;52.600;4.694;2022-07-21T04:33:44;101635.09;;;18.35;66.17
62725;BME280;49026;52.600;4.694;2022-07-21T04:36:10;101628.06;;;18.34;65.83
62725;BME280;49026;52.600;4.694;2022-07-21T04:38:35;101635.09;;;18.35;65.96
62725;BME280;49026;52.600;4.694;2022-07-21T04:41:03;101638.53;;;18.37;66.02
62725;BME280;49026;52.600;4.694;2022-07-21T04:43:28;101639.59;;;18.35;66.10
62725;BME280;49026;52.600;4.694;2022-07-21T04:45:56;101647.00;;;18.29;66.18
62725;BME280;49026;52.600;4.694;2022-07-21T04:48:23;101638.88;;;18.17;66.41
62725;BME280;49026;52.600;4.694;2022-07-21T04:50:51;101645.50;;;18.09;66.88
62725;BME280;49026;52.600;4.694;2022-07-21T04:53:19;101653.00;;;18.03;66.88
62725;BME280;49026;52.600;4.694;2022-07-21T04:55:44;101648.63;;;18.02;67.05
62725;BME280;49026;52.600;4.694;2022-07-21T04:58:09;101651.28;;;18.02;66.91
62725;BME280;49026;52.600;4.694;2022-07-21T05:00:35;101649.53;;;18.01;67.03
62725;BME280;49026;52.600;4.694;2022-07-21T05:03:00;101651.34;;;18.00;67.30
62725;BME280;49026;52.600;4.694;2022-07-21T05:05:25;101650.44;;;18.01;66.98
62725;BME280;49026;52.600;4.694;2022-07-21T05:07:51;101655.06;;;17.98;66.96
62725;BME280;49026;52.600;4.694;2022-07-21T05:10:18;101645.53;;;17.93;67.14
62725;BME280;49026;52.600;4.694;2022-07-21T05:12:43;101646.91;;;17.85;67.10
62725;BME280;49026;52.600;4.694;2022-07-21T05:15:09;101654.66;;;17.73;67.34
62725;BME280;49026;52.600;4.694;2022-07-21T05:17:36;101650.72;;;17.65;67.83
62725;BME280;49026;52.600;4.694;2022-07-21T05:20:03;101640.25;;;17.62;67.97
62725;BME280;49026;52.600;4.694;2022-07-21T05:22:32;101648.47;;;17.57;68.12
62725;BME280;49026;52.600;4.694;2022-07-21T05:24:59;101636.50;;;17.50;68.02
62725;BME280;49026;52.600;4.694;2022-07-21T05:27:25;101634.00;;;17.47;68.33
62725;BME280;49026;52.600;4.694;2022-07-21T05:29:50;101640.38;;;17.44;68.47
62725;BME280;49026;52.600;4.694;2022-07-21T05:32:15;101633.41;;;17.41;68.46
62725;BME280;49026;52.600;4.694;2022-07-21T05:34:41;101636.16;;;17.40;68.48
62725;BME280;49026;52.600;4.694;2022-07-21T05:37:06;101633.66;;;17.37;68.50
62725;BME280;49026;52.600;4.694;2022-07-21T05:39:31;101638.06;;;17.38;68.50
62725;BME280;49026;52.600;4.694;2022-07-21T05:41:57;101627.25;;;17.41;68.82
62725;BME280;49026;52.600;4.694;2022-07-21T05:44:22;101627.84;;;17.46;68.57
62725;BME280;49026;52.600;4.694;2022-07-21T05:46:49;101628.63;;;17.48;68.57
62725;BME280;49026;52.600;4.694;2022-07-21T05:49:14;101628.69;;;17.47;68.74
62725;BME280;49026;52.600;4.694;2022-07-21T05:51:40;101626.88;;;17.47;68.83
62725;BME280;49026;52.600;4.694;2022-07-21T05:54:05;101631.19;;;17.50;68.90
62725;BME280;49026;52.600;4.694;2022-07-21T05:56:33;101626.47;;;17.55;69.20
62725;BME280;49026;52.600;4.694;2022-07-21T05:58:58;101630.66;;;17.59;69.00
62725;BME280;49026;52.600;4.694;2022-07-21T06:01:23;101634.09;;;17.61;69.03
62725;BME280;49026;52.600;4.694;2022-07-21T06:03:50;101636.75;;;17.61;69.11
62725;BME280;49026;52.600;4.694;2022-07-21T06:06:16;101630.56;;;17.60;68.97
62725;BME280;49026;52.600;4.694;2022-07-21T06:08:46;101635.19;;;17.57;69.44
62725;BME280;49026;52.600;4.694;2022-07-21T06:11:15;101637.09;;;17.55;69.41
62725;BME280;49026;52.600;4.694;2022-07-21T06:13:42;101633.69;;;17.53;69.29
62725;BME280;49026;52.600;4.694;2022-07-21T06:16:10;101639.91;;;17.52;69.43
62725;BME280;49026;52.600;4.694;2022-07-21T06:18:35;101638.03;;;17.54;69.47
62725;BME280;49026;52.600;4.694;2022-07-21T06:21:01;101639.66;;;17.56;69.59
62725;BME280;49026;52.600;4.694;2022-07-21T06:23:27;101642.31;;;17.56;69.48
62725;BME280;49026;52.600;4.694;2022-07-21T06:25:55;101639.59;;;17.58;69.51
62725;BME280;49026;52.600;4.694;2022-07-21T06:28:22;101636.94;;;17.58;69.65
62725;BME280;49026;52.600;4.694;2022-07-21T06:30:48;101640.59;;;17.55;69.70
62725;BME280;49026;52.600;4.694;2022-07-21T06:33:14;101640.59;;;17.55;69.50
62725;BME280;49026;52.600;4.694;2022-07-21T06:35:39;101640.75;;;17.52;69.56
62725;BME280;49026;52.600;4.694;2022-07-21T06:38:05;101644.47;;;17.50;69.70
62725;BME280;49026;52.600;4.694;2022-07-21T06:40:30;101640.09;;;17.49;69.92
62725;BME280;49026;52.600;4.694;2022-07-21T06:42:56;101650.13;;;17.44;70.01
62725;BME280;49026;52.600;4.694;2022-07-21T06:45:22;101653.91;;;17.39;70.01
62725;BME280;49026;52.600;4.694;2022-07-21T06:47:50;101647.81;;;17.37;70.11
62725;BME280;49026;52.600;4.694;2022-07-21T06:50:18;101645.25;;;17.36;70.04
62725;BME280;49026;52.600;4.694;2022-07-21T06:52:43;101648.69;;;17.38;70.17
62725;BME280;49026;52.600;4.694;2022-07-21T06:55:09;101652.25;;;17.37;70.05
62725;BME280;49026;52.600;4.694;2022-07-21T06:57:35;101648.00;;;17.34;70.27
62725;BME280;49026;52.600;4.694;2022-07-21T07:00:04;101644.38;;;17.35;70.34
62725;BME280;49026;52.600;4.694;2022-07-21T07:02:30;101648.84;;;17.35;70.20
62725;BME280;49026;52.600;4.694;2022-07-21T07:04:55;101643.53;;;17.35;70.22
62725;BME280;49026;52.600;4.694;2022-07-21T07:07:21;101645.41;;;17.33;70.41
62725;BME280;49026;52.600;4.694;2022-07-21T07:09:46;101637.53;;;17.31;70.39
62725;BME280;49026;52.600;4.694;2022-07-21T07:12:11;101643.69;;;17.32;70.44
62725;BME280;49026;52.600;4.694;2022-07-21T07:14:36;101645.41;;;17.33;70.44
62725;BME280;49026;52.600;4.694;2022-07-21T07:17:03;101642.59;;;17.36;70.70
62725;BME280;49026;52.600;4.694;2022-07-21T07:19:31;101645.16;;;17.37;70.75
62725;BME280;49026;52.600;4.694;2022-07-21T07:21:58;101642.22;;;17.42;70.54
62725;BME280;49026;52.600;4.694;2022-07-21T07:24:23;101640.09;;;17.49;70.48
62725;BME280;49026;52.600;4.694;2022-07-21T07:26:51;101645.81;;;17.57;70.78
62725;BME280;49026;52.600;4.694;2022-07-21T07:29:16;101634.34;;;17.56;70.59
62725;BME280;49026;52.600;4.694;2022-07-21T07:31:41;101637.84;;;17.57;70.79
62725;BME280;49026;52.600;4.694;2022-07-21T07:34:07;101634.44;;;17.55;70.82
62725;BME280;49026;52.600;4.694;2022-07-21T07:36:33;101635.28;;;17.55;71.13
62725;BME280;49026;52.600;4.694;2022-07-21T07:39:00;101639.84;;;17.53;70.82
62725;BME280;49026;52.600;4.694;2022-07-21T07:41:26;101643.72;;;17.48;70.89
62725;BME280;49026;52.600;4.694;2022-07-21T07:43:54;101649.19;;;17.45;71.05
62725;BME280;49026;52.600;4.694;2022-07-21T07:46:19;101657.25;;;17.43;71.27
62725;BME280;49026;52.600;4.694;2022-07-21T07:48:44;101658.47;;;17.37;71.57
62725;BME280;49026;52.600;4.694;2022-07-21T07:51:11;101656.06;;;17.33;71.64
62725;BME280;49026;52.600;4.694;2022-07-21T07:53:40;101656.06;;;17.33;71.97
62725;BME280;49026;52.600;4.694;2022-07-21T07:56:08;101664.19;;;17.30;71.77
62725;BME280;49026;52.600;4.694;2022-07-21T07:58:34;101661.69;;;17.27;71.55
62725;BME280;49026;52.600;4.694;2022-07-21T08:01:01;101668.91;;;17.25;71.91
62725;BME280;49026;52.600;4.694;2022-07-21T08:03:27;101669.91;;;17.22;71.92
62725;BME280;49026;52.600;4.694;2022-07-21T08:05:58;101678.84;;;17.21;71.88
62725;BME280;49026;52.600;4.694;2022-07-21T08:08:28;101669.38;;;17.15;71.78
62725;BME280;49026;52.600;4.694;2022-07-21T08:10:53;101678.31;;;17.14;71.74
62725;BME280;49026;52.600;4.694;2022-07-21T08:13:21;101677.44;;;17.14;71.79
62725;BME280;49026;52.600;4.694;2022-07-21T08:15:49;101679.56;;;17.07;72.27
62725;BME280;49026;52.600;4.694;2022-07-21T08:18:15;101688.50;;;17.06;72.39
62725;BME280;49026;52.600;4.694;2022-07-21T08:20:44;101692.16;;;17.03;72.11
62725;BME280;49026;52.600;4.694;2022-07-21T08:23:11;101692.22;;;17.02;72.00
62725;BME280;49026;52.600;4.694;2022-07-21T08:25:44;101706.72;;;16.96;72.26
62725;BME280;49026;52.600;4.694;2022-07-21T08:28:12;101711.16;;;16.96;72.40
62725;BME280;49026;52.600;4.694;2022-07-21T08:30:37;101714.06;;;16.91;72.22
62725;BME280;49026;52.600;4.694;2022-07-21T08:33:04;101714.91;;;16.92;72.23
62725;BME280;49026;52.600;4.694;2022-07-21T08:35:30;101706.78;;;16.95;72.54
62725;BME280;49026;52.600;4.694;2022-07-21T08:38:01;101709.44;;;16.95;73.06
62725;BME280;49026;52.600;4.694;2022-07-21T08:40:29;101711.16;;;16.96;72.64
62725;BME280;49026;52.600;4.694;2022-07-21T08:42:58;101709.28;;;16.98;72.79
62725;BME280;49026;52.600;4.694;2022-07-21T08:45:23;101712.94;;;16.95;73.05
62725;BME280;49026;52.600;4.694;2022-07-21T08:47:53;101710.44;;;16.92;73.00
62725;BME280;49026;52.600;4.694;2022-07-21T08:50:22;101712.94;;;16.95;72.72
62725;BME280;49026;52.600;4.694;2022-07-21T08:52:48;101708.44;;;16.97;72.51
62725;BME280;49026;52.600;4.694;2022-07-21T08:55:13;101703.13;;;16.97;72.48
62725;BME280;49026;52.600;4.694;2022-07-21T08:57:39;101699.34;;;17.01;72.39
62725;BME280;49026;52.600;4.694;2022-07-21T09:00:06;101701.25;;;16.99;72.67
62725;BME280;49026;52.600;4.694;2022-07-21T09:02:33;101697.69;;;16.99;72.87
62725;BME280;49026;52.600;4.694;2022-07-21T09:05:00;101695.03;;;16.99;73.39
62725;BME280;49026;52.600;4.694;2022-07-21T09:07:25;101704.81;;;16.98;73.08
62725;BME280;49026;52.600;4.694;2022-07-21T09:10:00;101704.59;;;17.03;73.27
62725;BME280;49026;52.600;4.694;2022-07-21T09:12:27;101705.28;;;17.07;72.87
62725;BME280;49026;52.600;4.694;2022-07-21T09:15:12;101701.59;;;17.09;72.88
62725;BME280;49026;52.600;4.694;2022-07-21T09:17:37;101701.41;;;17.12;73.33
62725;BME280;49026;52.600;4.694;2022-07-21T09:20:03;101708.63;;;17.10;72.70
62725;BME280;49026;52.600;4.694;2022-07-21T09:22:28;101711.19;;;17.12;73.07
62725;BME280;49026;52.600;4.694;2022-07-21T09:24:54;101704.78;;;17.16;73.06
62725;BME280;49026;52.600;4.694;2022-07-21T09:27:25;101712.41;;;17.22;73.35
62725;BME280;49026;52.600;4.694;2022-07-21T09:29:53;101712.91;;;17.29;73.33
62725;BME280;49026;52.600;4.694;2022-07-21T09:32:30;101707.44;;;17.32;72.42
62725;BME280;49026;52.600;4.694;2022-07-21T09:35:00;101707.22;;;17.36;72.93
62725;BME280;49026;52.600;4.694;2022-07-21T09:37:28;101703.19;;;17.45;73.14
62725;BME280;49026;52.600;4.694;2022-07-21T09:39:56;101708.66;;;17.58;73.13
62725;BME280;49026;52.600;4.694;2022-07-21T09:42:24;101705.06;;;17.59;73.45
62725;BME280;49026;52.600;4.694;2022-07-21T09:44:53;101707.53;;;17.62;73.54
62725;BME280;49026;52.600;4.694;2022-07-21T09:47:21;101699.56;;;17.78;73.46
62725;BME280;49026;52.600;4.694;2022-07-21T09:49:47;101703.31;;;18.06;73.15
62725;BME280;49026;52.600;4.694;2022-07-21T09:52:30;101705.44;;;18.31;73.75
62725;BME280;49026;52.600;4.694;2022-07-21T09:55:19;101707.16;;;18.46;73.46
62725;BME280;49026;52.600;4.694;2022-07-21T09:57:45;101715.06;;;18.48;72.77
62725;BME280;49026;52.600;4.694;2022-07-21T10:00:16;101715.72;;;18.51;73.39
62725;BME280;49026;52.600;4.694;2022-07-21T10:02:43;101716.13;;;18.60;73.30
62725;BME280;49026;52.600;4.694;2022-07-21T10:05:15;101723.94;;;18.63;73.59
62725;BME280;49026;52.600;4.694;2022-07-21T10:07:43;101725.16;;;18.57;73.57
62725;BME280;49026;52.600;4.694;2022-07-21T10:10:10;101731.97;;;18.47;73.64
62725;BME280;49026;52.600;4.694;2022-07-21T10:12:36;101723.50;;;18.40;73.89
62725;BME280;49026;52.600;4.694;2022-07-21T10:15:01;101724.06;;;18.31;74.55
62725;BME280;49026;52.600;4.694;2022-07-21T10:17:27;101724.56;;;18.22;74.78
62725;BME280;49026;52.600;4.694;2022-07-21T10:20:13;101734.88;;;18.12;74.42
62725;BME280;49026;52.600;4.694;2022-07-21T10:25:27;101731.56;;;18.08;74.24
62725;BME280;49026;52.600;4.694;2022-07-21T10:30:44;101734.88;;;18.12;74.31
62725;BME280;49026;52.600;4.694;2022-07-21T10:33:12;101737.47;;;18.13;74.04
62725;BME280;49026;52.600;4.694;2022-07-21T10:35:46;101740.47;;;18.07;74.30
62725;BME280;49026;52.600;4.694;2022-07-21T10:38:28;101738.19;;;18.01;74.58
62725;BME280;49026;52.600;4.694;2022-07-21T10:40:53;101737.50;;;17.98;74.27
62725;BME280;49026;52.600;4.694;2022-07-21T10:45:51;101738.09;;;17.87;73.92
62725;BME280;49026;52.600;4.694;2022-07-21T10:51:23;101739.13;;;17.84;74.23
62725;BME280;49026;52.600;4.694;2022-07-21T10:54:17;101744.44;;;17.84;74.11
62725;BME280;49026;52.600;4.694;2022-07-21T10:56:43;101738.84;;;17.89;73.72
62725;BME280;49026;52.600;4.694;2022-07-21T10:59:08;101741.09;;;17.96;73.57
62725;BME280;49026;52.600;4.694;2022-07-21T11:01:33;101746.84;;;18.05;73.64
62725;BME280;49026;52.600;4.694;2022-07-21T11:04:07;101749.16;;;18.11;73.75
62725;BME280;49026;52.600;4.694;2022-07-21T11:06:37;101742.59;;;18.17;73.84
62725;BME280;49026;52.600;4.694;2022-07-21T11:11:30;101756.50;;;18.22;73.51
62725;BME280;49026;52.600;4.694;2022-07-21T11:13:59;101747.16;;;18.14;73.36
62725;BME280;49026;52.600;4.694;2022-07-21T11:19:33;101742.38;;;18.05;73.57
62725;BME280;49026;52.600;4.694;2022-07-21T11:22:20;101752.41;;;18.00;73.59
62725;BME280;49026;52.600;4.694;2022-07-21T11:24:50;101749.00;;;17.98;73.31
62725;BME280;49026;52.600;4.694;2022-07-21T11:27:18;101758.28;;;17.91;73.44
62725;BME280;49026;52.600;4.694;2022-07-21T11:29:47;101764.59;;;17.88;73.31
62725;BME280;49026;52.600;4.694;2022-07-21T11:32:14;101762.06;;;17.85;73.66
62725;BME280;49026;52.600;4.694;2022-07-21T11:37:16;101766.69;;;17.66;73.62
62725;BME280;49026;52.600;4.694;2022-07-21T11:39:42;101762.22;;;17.50;73.62
62725;BME280;49026;52.600;4.694;2022-07-21T11:42:11;101767.19;;;17.40;74.24
62725;BME280;49026;52.600;4.694;2022-07-21T11:44:40;101774.31;;;17.40;74.26
62725;BME280;49026;52.600;4.694;2022-07-21T11:47:09;101780.66;;;17.37;74.21
62725;BME280;49026;52.600;4.694;2022-07-21T11:49:35;101779.94;;;17.34;74.13
62725;BME280;49026;52.600;4.694;2022-07-21T11:52:04;101775.91;;;17.27;74.32
62725;BME280;49026;52.600;4.694;2022-07-21T11:54:38;101774.28;;;17.24;74.37
62725;BME280;49026;52.600;4.694;2022-07-21T11:57:08;101778.56;;;17.27;74.12
62725;BME280;49026;52.600;4.694;2022-07-21T11:59:34;101782.06;;;17.27;74.26
62725;BME280;49026;52.600;4.694;2022-07-21T12:02:07;101783.94;;;17.25;74.68
62725;BME280;49026;52.600;4.694;2022-07-21T12:10:07;101784.31;;;17.35;74.77
62725;BME280;49026;52.600;4.694;2022-07-21T12:12:46;101778.63;;;17.43;75.00
62725;BME280;49026;52.600;4.694;2022-07-21T12:15:20;101787.59;;;17.40;74.70
62725;BME280;49026;52.600;4.694;2022-07-21T12:17:50;101777.88;;;17.39;74.59
62725;BME280;49026;52.600;4.694;2022-07-21T12:20:27;101786.66;;;17.41;74.86
62725;BME280;49026;52.600;4.694;2022-07-21T12:22:56;101782.97;;;17.44;74.62
62725;BME280;49026;52.600;4.694;2022-07-21T12:27:57;101788.31;;;17.59;74.88
62725;BME280;49026;52.600;4.694;2022-07-21T12:33:11;101786.72;;;17.89;74.78
62725;BME280;49026;52.600;4.694;2022-07-21T12:35:39;101787.22;;;17.95;74.67
62725;BME280;49026;52.600;4.694;2022-07-21T12:40:48;101794.97;;;18.00;74.95
62725;BME280;49026;52.600;4.694;2022-07-21T12:43:17;101794.94;;;17.84;74.78
62725;BME280;49026;52.600;4.694;2022-07-21T12:45:50;101806.00;;;17.76;75.21
62725;BME280;49026;52.600;4.694;2022-07-21T12:48:21;101803.16;;;17.80;75.02
62725;BME280;49026;52.600;4.694;2022-07-21T12:51:26;101795.88;;;17.83;75.24
62725;BME280;49026;52.600;4.694;2022-07-21T12:53:53;101801.28;;;17.82;74.67
62725;BME280;49026;52.600;4.694;2022-07-21T12:56:26;101804.88;;;17.81;75.25
62725;BME280;49026;52.600;4.694;2022-07-21T12:58:54;101805.22;;;17.74;75.07
62725;BME280;49026;52.600;4.694;2022-07-21T13:01:21;101800.41;;;17.65;75.73
62725;BME280;49026;52.600;4.694;2022-07-21T13:03:49;101806.31;;;17.54;75.88
62725;BME280;49026;52.600;4.694;2022-07-21T13:06:18;101812.19;;;17.44;75.96
62725;BME280;49026;52.600;4.694;2022-07-21T13:08:45;101812.53;;;17.37;76.40
62725;BME280;49026;52.600;4.694;2022-07-21T13:11:13;101816.44;;;17.30;76.56
62725;BME280;49026;52.600;4.694;2022-07-21T13:13:41;101812.31;;;17.25;76.35
62725;BME280;49026;52.600;4.694;2022-07-21T13:16:07;101814.91;;;17.26;77.13
62725;BME280;49026;52.600;4.694;2022-07-21T13:18:35;101821.56;;;17.17;76.83
62725;BME280;49026;52.600;4.694;2022-07-21T13:21:01;101829.06;;;17.09;76.56
62725;BME280;49026;52.600;4.694;2022-07-21T13:23:27;101815.25;;;17.02;76.34
62725;BME280;49026;52.600;4.694;2022-07-21T13:25:52;101843.03;;;16.95;76.68